Terminal Aerodrome Forecast
Issued by NWS

Home | Current Version | Previous Version | Text Only | Print | Product List | Glossary On
Versions: 1 2 3 4 5 6 7 8 9 10 11 12 13 14 15 16 17
000
FTUS46 KSEW 232300
TAFBLI
TAF
KBLI 232320Z 2400/2424 13008KT P6SM -RA SCT035 OVC060
     FM240200 13006KT P6SM -RA OVC035
     FM240400 12004KT 4SM RA BR OVC022
     FM240600 13009KT 3SM RA BR OVC014
     FM241300 14010KT 5SM -SHRA BR BKN022 OVC025
     FM241800 17008KT P6SM SCT025 BKN045
     FM242100 16006KT P6SM SCT045=

USA.gov is the U.S. government's official web portal to all federal, state and local government web resources and services.